sensor_id;sensor_type;location;lat;lon;timestamp;P1;durP1;ratioP1;P2;durP2;ratioP2
71610;SDS011;59459;51.172;6.682;2023-08-07T00:00:23;6.67;;;1.30;;
71610;SDS011;59459;51.172;6.682;2023-08-07T00:02:49;6.13;;;1.40;;
71610;SDS011;59459;51.172;6.682;2023-08-07T00:05:14;11.85;;;1.40;;
71610;SDS011;59459;51.172;6.682;2023-08-07T00:07:39;5.60;;;1.20;;
71610;SDS011;59459;51.172;6.682;2023-08-07T00:10:05;6.13;;;1.40;;
71610;SDS011;59459;51.172;6.682;2023-08-07T00:12:30;7.27;;;1.43;;
71610;SDS011;59459;51.172;6.682;2023-08-07T00:14:56;4.68;;;1.10;;
71610;SDS011;59459;51.172;6.682;2023-08-07T00:17:21;4.30;;;1.13;;
71610;SDS011;59459;51.172;6.682;2023-08-07T00:19:46;4.77;;;1.10;;
71610;SDS011;59459;51.172;6.682;2023-08-07T00:22:11;6.83;;;1.20;;
71610;SDS011;59459;51.172;6.682;2023-08-07T00:24:36;7.77;;;1.63;;
71610;SDS011;59459;51.172;6.682;2023-08-07T00:27:02;5.03;;;1.20;;
71610;SDS011;59459;51.172;6.682;2023-08-07T00:29:28;11.60;;;1.60;;
71610;SDS011;59459;51.172;6.682;2023-08-07T00:31:53;8.27;;;1.63;;
71610;SDS011;59459;51.172;6.682;2023-08-07T00:34:18;5.90;;;1.20;;
71610;SDS011;59459;51.172;6.682;2023-08-07T00:36:43;6.80;;;1.23;;
71610;SDS011;59459;51.172;6.682;2023-08-07T00:39:08;5.23;;;1.20;;
71610;SDS011;59459;51.172;6.682;2023-08-07T00:41:34;6.80;;;1.27;;
71610;SDS011;59459;51.172;6.682;2023-08-07T00:43:59;5.85;;;1.13;;
71610;SDS011;59459;51.172;6.682;2023-08-07T00:46:25;4.47;;;1.10;;
71610;SDS011;59459;51.172;6.682;2023-08-07T00:48:51;5.43;;;1.15;;
71610;SDS011;59459;51.172;6.682;2023-08-07T00:51:17;5.53;;;1.13;;
71610;SDS011;59459;51.172;6.682;2023-08-07T00:53:42;9.50;;;1.60;;
71610;SDS011;59459;51.172;6.682;2023-08-07T00:56:08;5.40;;;1.27;;
71610;SDS011;59459;51.172;6.682;2023-08-07T00:58:33;8.27;;;1.83;;
71610;SDS011;59459;51.172;6.682;2023-08-07T01:00:58;6.57;;;1.63;;
71610;SDS011;59459;51.172;6.682;2023-08-07T01:03:24;9.73;;;2.13;;
71610;SDS011;59459;51.172;6.682;2023-08-07T01:05:49;5.57;;;1.48;;
71610;SDS011;59459;51.172;6.682;2023-08-07T01:08:14;5.50;;;1.87;;
71610;SDS011;59459;51.172;6.682;2023-08-07T01:13:16;8.40;;;1.80;;
71610;SDS011;59459;51.172;6.682;2023-08-07T01:15:43;8.60;;;2.13;;
71610;SDS011;59459;51.172;6.682;2023-08-07T01:18:09;8.15;;;1.67;;
71610;SDS011;59459;51.172;6.682;2023-08-07T01:20:35;6.07;;;1.20;;
71610;SDS011;59459;51.172;6.682;2023-08-07T01:23:01;8.53;;;1.63;;
71610;SDS011;59459;51.172;6.682;2023-08-07T01:25:26;8.40;;;1.30;;
71610;SDS011;59459;51.172;6.682;2023-08-07T01:28:00;10.95;;;1.67;;
71610;SDS011;59459;51.172;6.682;2023-08-07T01:30:33;8.70;;;1.50;;
71610;SDS011;59459;51.172;6.682;2023-08-07T01:33:00;7.60;;;1.67;;
71610;SDS011;59459;51.172;6.682;2023-08-07T01:35:29;7.22;;;1.90;;
71610;SDS011;59459;51.172;6.682;2023-08-07T01:37:55;10.93;;;1.73;;
71610;SDS011;59459;51.172;6.682;2023-08-07T01:40:21;9.90;;;2.00;;
71610;SDS011;59459;51.172;6.682;2023-08-07T01:42:46;7.57;;;1.90;;
71610;SDS011;59459;51.172;6.682;2023-08-07T01:45:12;6.77;;;1.40;;
71610;SDS011;59459;51.172;6.682;2023-08-07T01:47:37;8.70;;;2.03;;
71610;SDS011;59459;51.172;6.682;2023-08-07T01:50:03;4.50;;;1.60;;
71610;SDS011;59459;51.172;6.682;2023-08-07T01:52:28;6.20;;;1.60;;
71610;SDS011;59459;51.172;6.682;2023-08-07T01:54:53;8.87;;;1.73;;
71610;SDS011;59459;51.172;6.682;2023-08-07T01:57:18;7.93;;;1.30;;
71610;SDS011;59459;51.172;6.682;2023-08-07T01:59:44;8.07;;;2.10;;
71610;SDS011;59459;51.172;6.682;2023-08-07T02:02:09;11.40;;;1.58;;
71610;SDS011;59459;51.172;6.682;2023-08-07T02:04:35;9.43;;;1.87;;
71610;SDS011;59459;51.172;6.682;2023-08-07T02:07:00;6.17;;;1.43;;
71610;SDS011;59459;51.172;6.682;2023-08-07T02:09:25;11.23;;;1.93;;
71610;SDS011;59459;51.172;6.682;2023-08-07T02:11:50;8.60;;;2.53;;
71610;SDS011;59459;51.172;6.682;2023-08-07T02:14:15;7.23;;;1.97;;
71610;SDS011;59459;51.172;6.682;2023-08-07T02:16:41;9.23;;;1.67;;
71610;SDS011;59459;51.172;6.682;2023-08-07T02:19:06;6.97;;;1.57;;
71610;SDS011;59459;51.172;6.682;2023-08-07T02:21:31;5.77;;;1.50;;
71610;SDS011;59459;51.172;6.682;2023-08-07T02:23:56;6.93;;;1.80;;
71610;SDS011;59459;51.172;6.682;2023-08-07T02:26:22;10.23;;;1.67;;
71610;SDS011;59459;51.172;6.682;2023-08-07T02:28:47;10.43;;;2.20;;
71610;SDS011;59459;51.172;6.682;2023-08-07T02:31:12;8.50;;;1.53;;
71610;SDS011;59459;51.172;6.682;2023-08-07T02:33:37;11.60;;;1.83;;
71610;SDS011;59459;51.172;6.682;2023-08-07T02:36:02;5.10;;;1.67;;
71610;SDS011;59459;51.172;6.682;2023-08-07T02:38:28;6.83;;;1.00;;
71610;SDS011;59459;51.172;6.682;2023-08-07T02:40:53;7.90;;;1.20;;
71610;SDS011;59459;51.172;6.682;2023-08-07T02:43:18;7.57;;;1.30;;
71610;SDS011;59459;51.172;6.682;2023-08-07T02:45:43;5.87;;;1.00;;
71610;SDS011;59459;51.172;6.682;2023-08-07T02:48:09;7.80;;;1.67;;
71610;SDS011;59459;51.172;6.682;2023-08-07T02:50:35;7.40;;;1.63;;
71610;SDS011;59459;51.172;6.682;2023-08-07T02:53:00;9.52;;;1.90;;
71610;SDS011;59459;51.172;6.682;2023-08-07T02:55:25;9.33;;;1.63;;
71610;SDS011;59459;51.172;6.682;2023-08-07T02:57:51;10.50;;;1.83;;
71610;SDS011;59459;51.172;6.682;2023-08-07T03:00:16;5.07;;;1.57;;
71610;SDS011;59459;51.172;6.682;2023-08-07T03:02:41;7.13;;;1.53;;
71610;SDS011;59459;51.172;6.682;2023-08-07T03:05:06;8.50;;;1.73;;
71610;SDS011;59459;51.172;6.682;2023-08-07T03:07:32;6.78;;;1.30;;
71610;SDS011;59459;51.172;6.682;2023-08-07T03:09:57;7.97;;;1.70;;
71610;SDS011;59459;51.172;6.682;2023-08-07T03:12:22;8.27;;;1.93;;
71610;SDS011;59459;51.172;6.682;2023-08-07T03:14:47;7.83;;;1.70;;
71610;SDS011;59459;51.172;6.682;2023-08-07T03:17:13;10.57;;;1.50;;
71610;SDS011;59459;51.172;6.682;2023-08-07T03:19:39;10.10;;;1.50;;
71610;SDS011;59459;51.172;6.682;2023-08-07T03:22:04;7.75;;;1.50;;
71610;SDS011;59459;51.172;6.682;2023-08-07T03:24:30;6.50;;;1.53;;
71610;SDS011;59459;51.172;6.682;2023-08-07T03:26:55;6.13;;;1.83;;
71610;SDS011;59459;51.172;6.682;2023-08-07T03:29:20;10.73;;;1.60;;
71610;SDS011;59459;51.172;6.682;2023-08-07T03:31:45;8.23;;;1.57;;
71610;SDS011;59459;51.172;6.682;2023-08-07T03:34:10;7.53;;;1.80;;
71610;SDS011;59459;51.172;6.682;2023-08-07T03:36:36;14.13;;;1.77;;
71610;SDS011;59459;51.172;6.682;2023-08-07T03:39:01;7.27;;;1.67;;
71610;SDS011;59459;51.172;6.682;2023-08-07T03:41:26;8.03;;;1.70;;
71610;SDS011;59459;51.172;6.682;2023-08-07T03:43:53;7.72;;;1.65;;
71610;SDS011;59459;51.172;6.682;2023-08-07T03:46:18;6.77;;;2.00;;
71610;SDS011;59459;51.172;6.682;2023-08-07T03:48:43;7.60;;;1.50;;
71610;SDS011;59459;51.172;6.682;2023-08-07T03:51:08;5.10;;;1.63;;
71610;SDS011;59459;51.172;6.682;2023-08-07T03:53:33;5.43;;;1.43;;
71610;SDS011;59459;51.172;6.682;2023-08-07T03:55:59;4.30;;;1.07;;
71610;SDS011;59459;51.172;6.682;2023-08-07T03:58:24;6.73;;;1.50;;
71610;SDS011;59459;51.172;6.682;2023-08-07T04:00:50;4.43;;;1.10;;
71610;SDS011;59459;51.172;6.682;2023-08-07T04:03:15;5.25;;;1.15;;
71610;SDS011;59459;51.172;6.682;2023-08-07T04:05:40;3.17;;;0.97;;
71610;SDS011;59459;51.172;6.682;2023-08-07T04:08:06;7.30;;;1.37;;
71610;SDS011;59459;51.172;6.682;2023-08-07T04:10:31;8.97;;;1.70;;
71610;SDS011;59459;51.172;6.682;2023-08-07T04:12:56;6.23;;;1.37;;
71610;SDS011;59459;51.172;6.682;2023-08-07T04:15:21;6.00;;;1.87;;
71610;SDS011;59459;51.172;6.682;2023-08-07T04:17:46;6.30;;;1.93;;
71610;SDS011;59459;51.172;6.682;2023-08-07T04:20:12;6.27;;;1.23;;
71610;SDS011;59459;51.172;6.682;2023-08-07T04:22:37;9.70;;;1.60;;
71610;SDS011;59459;51.172;6.682;2023-08-07T04:25:02;5.97;;;1.33;;
71610;SDS011;59459;51.172;6.682;2023-08-07T04:27:27;5.53;;;1.50;;
71610;SDS011;59459;51.172;6.682;2023-08-07T04:29:53;8.83;;;1.50;;
71610;SDS011;59459;51.172;6.682;2023-08-07T04:32:18;8.73;;;1.40;;
71610;SDS011;59459;51.172;6.682;2023-08-07T04:34:43;11.67;;;1.77;;
71610;SDS011;59459;51.172;6.682;2023-08-07T04:37:08;9.10;;;1.83;;
71610;SDS011;59459;51.172;6.682;2023-08-07T04:39:34;7.27;;;1.37;;
71610;SDS011;59459;51.172;6.682;2023-08-07T04:42:00;8.18;;;1.80;;
71610;SDS011;59459;51.172;6.682;2023-08-07T04:44:26;9.77;;;1.50;;
71610;SDS011;59459;51.172;6.682;2023-08-07T04:46:51;6.83;;;1.43;;
71610;SDS011;59459;51.172;6.682;2023-08-07T04:49:17;10.80;;;1.90;;
71610;SDS011;59459;51.172;6.682;2023-08-07T04:51:42;7.47;;;2.07;;
71610;SDS011;59459;51.172;6.682;2023-08-07T04:54:07;8.67;;;1.63;;
71610;SDS011;59459;51.172;6.682;2023-08-07T04:56:33;8.93;;;1.70;;
71610;SDS011;59459;51.172;6.682;2023-08-07T04:58:59;7.83;;;1.93;;
71610;SDS011;59459;51.172;6.682;2023-08-07T05:01:25;6.60;;;2.15;;
71610;SDS011;59459;51.172;6.682;2023-08-07T05:03:50;9.83;;;2.10;;
71610;SDS011;59459;51.172;6.682;2023-08-07T05:06:15;6.03;;;1.60;;
71610;SDS011;59459;51.172;6.682;2023-08-07T05:08:41;6.63;;;1.90;;
71610;SDS011;59459;51.172;6.682;2023-08-07T05:11:06;8.00;;;1.73;;
71610;SDS011;59459;51.172;6.682;2023-08-07T05:13:31;8.37;;;2.07;;
71610;SDS011;59459;51.172;6.682;2023-08-07T05:15:56;10.93;;;2.23;;
71610;SDS011;59459;51.172;6.682;2023-08-07T05:18:22;5.87;;;2.03;;
71610;SDS011;59459;51.172;6.682;2023-08-07T05:20:47;9.53;;;2.87;;
71610;SDS011;59459;51.172;6.682;2023-08-07T05:23:12;7.83;;;2.23;;
71610;SDS011;59459;51.172;6.682;2023-08-07T05:25:37;11.53;;;2.20;;
71610;SDS011;59459;51.172;6.682;2023-08-07T05:28:03;12.23;;;2.40;;
71610;SDS011;59459;51.172;6.682;2023-08-07T05:30:28;7.47;;;1.63;;
71610;SDS011;59459;51.172;6.682;2023-08-07T05:32:53;5.70;;;1.67;;
71610;SDS011;59459;51.172;6.682;2023-08-07T05:35:19;7.65;;;1.63;;
71610;SDS011;59459;51.172;6.682;2023-08-07T05:37:45;12.20;;;2.57;;
71610;SDS011;59459;51.172;6.682;2023-08-07T05:40:10;8.03;;;2.20;;
71610;SDS011;59459;51.172;6.682;2023-08-07T05:42:39;8.23;;;1.80;;
71610;SDS011;59459;51.172;6.682;2023-08-07T05:45:05;5.90;;;1.55;;
71610;SDS011;59459;51.172;6.682;2023-08-07T05:47:31;6.57;;;1.70;;
71610;SDS011;59459;51.172;6.682;2023-08-07T05:49:57;10.18;;;1.92;;
71610;SDS011;59459;51.172;6.682;2023-08-07T05:52:22;9.50;;;1.80;;
71610;SDS011;59459;51.172;6.682;2023-08-07T05:54:47;12.53;;;2.23;;
71610;SDS011;59459;51.172;6.682;2023-08-07T05:57:12;6.87;;;1.70;;
71610;SDS011;59459;51.172;6.682;2023-08-07T05:59:38;10.27;;;1.67;;
71610;SDS011;59459;51.172;6.682;2023-08-07T06:02:05;7.28;;;1.58;;
71610;SDS011;59459;51.172;6.682;2023-08-07T06:04:31;11.20;;;2.10;;
71610;SDS011;59459;51.172;6.682;2023-08-07T06:06:56;7.80;;;1.80;;
71610;SDS011;59459;51.172;6.682;2023-08-07T06:09:21;11.43;;;1.73;;
71610;SDS011;59459;51.172;6.682;2023-08-07T06:11:47;13.57;;;2.17;;
71610;SDS011;59459;51.172;6.682;2023-08-07T06:14:12;8.70;;;1.30;;
71610;SDS011;59459;51.172;6.682;2023-08-07T06:16:37;6.77;;;1.90;;
71610;SDS011;59459;51.172;6.682;2023-08-07T06:19:02;9.47;;;2.40;;
71610;SDS011;59459;51.172;6.682;2023-08-07T06:21:28;6.25;;;1.80;;
71610;SDS011;59459;51.172;6.682;2023-08-07T06:23:53;7.50;;;1.50;;
71610;SDS011;59459;51.172;6.682;2023-08-07T06:26:19;5.87;;;1.50;;
71610;SDS011;59459;51.172;6.682;2023-08-07T06:28:44;7.90;;;2.10;;
71610;SDS011;59459;51.172;6.682;2023-08-07T06:31:10;8.37;;;1.93;;
71610;SDS011;59459;51.172;6.682;2023-08-07T06:33:35;7.07;;;1.38;;
71610;SDS011;59459;51.172;6.682;2023-08-07T06:36:01;8.15;;;2.03;;
71610;SDS011;59459;51.172;6.682;2023-08-07T06:38:27;6.97;;;1.83;;
71610;SDS011;59459;51.172;6.682;2023-08-07T06:40:52;8.40;;;2.40;;
71610;SDS011;59459;51.172;6.682;2023-08-07T06:43:17;8.17;;;1.90;;
71610;SDS011;59459;51.172;6.682;2023-08-07T06:45:43;8.77;;;1.80;;
71610;SDS011;59459;51.172;6.682;2023-08-07T06:48:08;8.57;;;2.00;;
71610;SDS011;59459;51.172;6.682;2023-08-07T06:50:33;11.97;;;4.87;;
71610;SDS011;59459;51.172;6.682;2023-08-07T06:52:59;10.70;;;4.23;;
71610;SDS011;59459;51.172;6.682;2023-08-07T06:55:24;7.60;;;3.00;;
71610;SDS011;59459;51.172;6.682;2023-08-07T06:57:49;11.07;;;2.60;;
71610;SDS011;59459;51.172;6.682;2023-08-07T07:00:15;7.87;;;2.27;;
71610;SDS011;59459;51.172;6.682;2023-08-07T07:02:40;9.98;;;2.78;;
71610;SDS011;59459;51.172;6.682;2023-08-07T07:05:05;8.77;;;2.60;;
71610;SDS011;59459;51.172;6.682;2023-08-07T07:07:31;12.90;;;3.10;;
71610;SDS011;59459;51.172;6.682;2023-08-07T07:09:56;6.63;;;1.83;;
71610;SDS011;59459;51.172;6.682;2023-08-07T07:12:23;9.00;;;2.08;;
71610;SDS011;59459;51.172;6.682;2023-08-07T07:14:48;10.00;;;2.97;;
71610;SDS011;59459;51.172;6.682;2023-08-07T07:17:13;8.73;;;3.00;;
71610;SDS011;59459;51.172;6.682;2023-08-07T07:19:38;5.60;;;1.60;;
71610;SDS011;59459;51.172;6.682;2023-08-07T07:22:04;10.17;;;2.63;;
71610;SDS011;59459;51.172;6.682;2023-08-07T07:24:29;9.27;;;2.60;;
71610;SDS011;59459;51.172;6.682;2023-08-07T07:26:54;7.07;;;2.10;;
71610;SDS011;59459;51.172;6.682;2023-08-07T07:29:19;7.53;;;2.23;;
71610;SDS011;59459;51.172;6.682;2023-08-07T07:31:45;10.00;;;3.63;;
71610;SDS011;59459;51.172;6.682;2023-08-07T07:34:11;11.57;;;2.83;;
71610;SDS011;59459;51.172;6.682;2023-08-07T07:36:36;10.15;;;2.40;;
71610;SDS011;59459;51.172;6.682;2023-08-07T07:39:01;7.47;;;2.10;;
71610;SDS011;59459;51.172;6.682;2023-08-07T07:41:26;10.50;;;3.60;;
71610;SDS011;59459;51.172;6.682;2023-08-07T07:43:52;8.60;;;3.95;;
71610;SDS011;59459;51.172;6.682;2023-08-07T07:46:18;9.13;;;2.47;;
71610;SDS011;59459;51.172;6.682;2023-08-07T07:48:43;8.43;;;3.80;;
71610;SDS011;59459;51.172;6.682;2023-08-07T07:51:08;7.47;;;2.53;;
71610;SDS011;59459;51.172;6.682;2023-08-07T07:53:33;9.93;;;4.10;;
71610;SDS011;59459;51.172;6.682;2023-08-07T07:55:59;12.97;;;4.23;;
71610;SDS011;59459;51.172;6.682;2023-08-07T07:58:24;7.15;;;2.38;;
71610;SDS011;59459;51.172;6.682;2023-08-07T08:00:49;7.53;;;2.10;;
71610;SDS011;59459;51.172;6.682;2023-08-07T08:03:17;7.53;;;1.93;;
71610;SDS011;59459;51.172;6.682;2023-08-07T08:05:42;10.63;;;2.60;;
71610;SDS011;59459;51.172;6.682;2023-08-07T08:08:07;7.07;;;1.33;;
71610;SDS011;59459;51.172;6.682;2023-08-07T08:10:33;6.28;;;1.65;;
71610;SDS011;59459;51.172;6.682;2023-08-07T08:12:59;12.40;;;1.80;;
71610;SDS011;59459;51.172;6.682;2023-08-07T08:15:24;6.72;;;2.13;;
71610;SDS011;59459;51.172;6.682;2023-08-07T08:17:50;5.43;;;1.63;;
71610;SDS011;59459;51.172;6.682;2023-08-07T08:20:15;8.00;;;1.87;;
71610;SDS011;59459;51.172;6.682;2023-08-07T08:22:44;8.07;;;1.80;;
71610;SDS011;59459;51.172;6.682;2023-08-07T08:25:10;8.13;;;1.97;;
71610;SDS011;59459;51.172;6.682;2023-08-07T08:27:36;8.30;;;1.70;;
71610;SDS011;59459;51.172;6.682;2023-08-07T08:30:02;7.80;;;2.13;;
71610;SDS011;59459;51.172;6.682;2023-08-07T08:32:27;6.97;;;1.90;;
71610;SDS011;59459;51.172;6.682;2023-08-07T08:34:53;6.87;;;1.43;;
71610;SDS011;59459;51.172;6.682;2023-08-07T08:37:18;11.03;;;1.57;;
71610;SDS011;59459;51.172;6.682;2023-08-07T08:39:43;10.47;;;2.13;;
71610;SDS011;59459;51.172;6.682;2023-08-07T08:42:09;9.07;;;1.77;;
71610;SDS011;59459;51.172;6.682;2023-08-07T08:44:36;6.07;;;1.60;;
71610;SDS011;59459;51.172;6.682;2023-08-07T08:47:02;6.72;;;1.35;;
71610;SDS011;59459;51.172;6.682;2023-08-07T08:49:30;11.77;;;2.10;;
71610;SDS011;59459;51.172;6.682;2023-08-07T08:51:57;6.85;;;1.80;;
71610;SDS011;59459;51.172;6.682;2023-08-07T08:54:23;9.35;;;1.42;;
71610;SDS011;59459;51.172;6.682;2023-08-07T08:56:49;6.85;;;1.80;;
71610;SDS011;59459;51.172;6.682;2023-08-07T08:59:15;10.17;;;1.83;;
71610;SDS011;59459;51.172;6.682;2023-08-07T09:01:43;5.80;;;1.90;;
71610;SDS011;59459;51.172;6.682;2023-08-07T09:04:08;10.13;;;1.60;;
71610;SDS011;59459;51.172;6.682;2023-08-07T09:06:40;7.20;;;1.70;;
71610;SDS011;59459;51.172;6.682;2023-08-07T09:09:05;7.80;;;2.00;;
71610;SDS011;59459;51.172;6.682;2023-08-07T09:11:31;5.70;;;1.40;;
71610;SDS011;59459;51.172;6.682;2023-08-07T09:13:58;8.18;;;1.73;;
71610;SDS011;59459;51.172;6.682;2023-08-07T09:16:25;7.32;;;1.58;;
71610;SDS011;59459;51.172;6.682;2023-08-07T09:18:51;9.80;;;1.27;;
71610;SDS011;59459;51.172;6.682;2023-08-07T09:21:17;6.03;;;1.47;;
71610;SDS011;59459;51.172;6.682;2023-08-07T09:23:42;7.55;;;1.25;;
71610;SDS011;59459;51.172;6.682;2023-08-07T09:26:08;3.70;;;1.33;;
71610;SDS011;59459;51.172;6.682;2023-08-07T09:28:35;7.45;;;1.33;;
71610;SDS011;59459;51.172;6.682;2023-08-07T09:31:00;4.83;;;1.10;;
71610;SDS011;59459;51.172;6.682;2023-08-07T09:33:27;6.65;;;0.90;;
71610;SDS011;59459;51.172;6.682;2023-08-07T09:35:53;5.13;;;1.10;;
71610;SDS011;59459;51.172;6.682;2023-08-07T09:38:22;6.90;;;1.40;;
71610;SDS011;59459;51.172;6.682;2023-08-07T09:40:48;5.68;;;1.30;;
71610;SDS011;59459;51.172;6.682;2023-08-07T09:43:20;7.83;;;1.30;;
71610;SDS011;59459;51.172;6.682;2023-08-07T09:45:45;7.45;;;1.80;;
71610;SDS011;59459;51.172;6.682;2023-08-07T09:48:10;5.10;;;1.63;;
71610;SDS011;59459;51.172;6.682;2023-08-07T09:50:37;6.78;;;1.65;;
71610;SDS011;59459;51.172;6.682;2023-08-07T09:53:02;4.93;;;1.33;;
71610;SDS011;59459;51.172;6.682;2023-08-07T09:55:27;6.03;;;1.27;;
71610;SDS011;59459;51.172;6.682;2023-08-07T09:57:53;6.03;;;1.20;;
71610;SDS011;59459;51.172;6.682;2023-08-07T10:00:18;4.40;;;1.25;;
71610;SDS011;59459;51.172;6.682;2023-08-07T10:02:47;2.47;;;0.80;;
71610;SDS011;59459;51.172;6.682;2023-08-07T10:05:12;6.30;;;1.17;;
71610;SDS011;59459;51.172;6.682;2023-08-07T10:07:38;6.73;;;1.30;;
71610;SDS011;59459;51.172;6.682;2023-08-07T10:10:03;5.43;;;2.10;;
71610;SDS011;59459;51.172;6.682;2023-08-07T10:12:29;6.37;;;1.73;;
71610;SDS011;59459;51.172;6.682;2023-08-07T10:14:54;7.83;;;1.00;;
71610;SDS011;59459;51.172;6.682;2023-08-07T10:17:23;6.53;;;1.90;;
71610;SDS011;59459;51.172;6.682;2023-08-07T10:19:48;4.33;;;1.37;;
71610;SDS011;59459;51.172;6.682;2023-08-07T10:22:15;4.47;;;1.50;;
71610;SDS011;59459;51.172;6.682;2023-08-07T10:24:40;4.77;;;1.20;;
71610;SDS011;59459;51.172;6.682;2023-08-07T10:27:07;6.10;;;1.45;;
71610;SDS011;59459;51.172;6.682;2023-08-07T10:29:33;2.88;;;1.15;;
71610;SDS011;59459;51.172;6.682;2023-08-07T10:31:59;4.47;;;1.38;;
71610;SDS011;59459;51.172;6.682;2023-08-07T10:34:25;4.37;;;1.27;;
71610;SDS011;59459;51.172;6.682;2023-08-07T10:36:53;4.25;;;1.10;;
71610;SDS011;59459;51.172;6.682;2023-08-07T10:39:18;3.57;;;1.20;;
71610;SDS011;59459;51.172;6.682;2023-08-07T10:41:46;4.90;;;1.77;;
71610;SDS011;59459;51.172;6.682;2023-08-07T10:46:56;4.60;;;1.20;;
71610;SDS011;59459;51.172;6.682;2023-08-07T10:51:57;3.73;;;1.20;;
71610;SDS011;59459;51.172;6.682;2023-08-07T10:54:23;4.22;;;1.20;;
71610;SDS011;59459;51.172;6.682;2023-08-07T10:56:52;4.67;;;1.20;;
71610;SDS011;59459;51.172;6.682;2023-08-07T10:59:17;3.22;;;0.95;;
71610;SDS011;59459;51.172;6.682;2023-08-07T11:01:43;5.53;;;0.90;;
71610;SDS011;59459;51.172;6.682;2023-08-07T11:04:09;4.60;;;1.42;;
71610;SDS011;59459;51.172;6.682;2023-08-07T11:06:36;5.53;;;1.20;;
71610;SDS011;59459;51.172;6.682;2023-08-07T11:09:03;3.20;;;1.13;;
71610;SDS011;59459;51.172;6.682;2023-08-07T11:11:29;5.25;;;1.50;;
71610;SDS011;59459;51.172;6.682;2023-08-07T11:13:54;5.37;;;1.47;;
71610;SDS011;59459;51.172;6.682;2023-08-07T11:16:19;2.70;;;1.20;;
71610;SDS011;59459;51.172;6.682;2023-08-07T11:18:48;4.60;;;1.40;;
71610;SDS011;59459;51.172;6.682;2023-08-07T11:21:14;3.92;;;1.10;;
71610;SDS011;59459;51.172;6.682;2023-08-07T11:23:39;5.17;;;1.00;;
71610;SDS011;59459;51.172;6.682;2023-08-07T11:26:05;3.53;;;1.20;;
71610;SDS011;59459;51.172;6.682;2023-08-07T11:28:30;4.87;;;1.30;;
71610;SDS011;59459;51.172;6.682;2023-08-07T11:30:56;6.93;;;1.60;;
71610;SDS011;59459;51.172;6.682;2023-08-07T11:33:21;3.67;;;1.20;;
71610;SDS011;59459;51.172;6.682;2023-08-07T11:35:47;3.83;;;1.00;;
71610;SDS011;59459;51.172;6.682;2023-08-07T11:38:15;3.65;;;1.10;;
71610;SDS011;59459;51.172;6.682;2023-08-07T11:40:53;4.43;;;1.25;;
71610;SDS011;59459;51.172;6.682;2023-08-07T11:43:21;4.40;;;1.30;;
71610;SDS011;59459;51.172;6.682;2023-08-07T11:45:46;4.90;;;1.63;;
71610;SDS011;59459;51.172;6.682;2023-08-07T11:48:11;5.43;;;2.03;;
71610;SDS011;59459;51.172;6.682;2023-08-07T11:50:36;4.57;;;1.50;;
71610;SDS011;59459;51.172;6.682;2023-08-07T11:53:03;5.38;;;1.30;;
71610;SDS011;59459;51.172;6.682;2023-08-07T11:55:28;4.93;;;1.27;;
71610;SDS011;59459;51.172;6.682;2023-08-07T11:57:54;5.27;;;1.07;;
71610;SDS011;59459;51.172;6.682;2023-08-07T12:00:19;4.13;;;0.83;;
71610;SDS011;59459;51.172;6.682;2023-08-07T12:02:45;3.35;;;1.10;;
71610;SDS011;59459;51.172;6.682;2023-08-07T12:05:11;3.13;;;1.07;;
71610;SDS011;59459;51.172;6.682;2023-08-07T12:07:36;4.63;;;1.70;;
71610;SDS011;59459;51.172;6.682;2023-08-07T12:10:03;2.77;;;0.90;;
71610;SDS011;59459;51.172;6.682;2023-08-07T12:12:32;4.10;;;1.02;;
71610;SDS011;59459;51.172;6.682;2023-08-07T12:14:57;5.65;;;1.23;;
71610;SDS011;59459;51.172;6.682;2023-08-07T12:17:22;2.73;;;0.80;;
71610;SDS011;59459;51.172;6.682;2023-08-07T12:19:47;2.87;;;1.00;;
71610;SDS011;59459;51.172;6.682;2023-08-07T12:22:15;2.30;;;0.88;;
71610;SDS011;59459;51.172;6.682;2023-08-07T12:24:44;4.10;;;1.63;;
71610;SDS011;59459;51.172;6.682;2023-08-07T12:27:10;4.03;;;1.20;;
71610;SDS011;59459;51.172;6.682;2023-08-07T12:29:35;3.03;;;1.03;;
71610;SDS011;59459;51.172;6.682;2023-08-07T12:32:00;3.40;;;2.07;;
71610;SDS011;59459;51.172;6.682;2023-08-07T12:34:26;3.77;;;1.27;;
71610;SDS011;59459;51.172;6.682;2023-08-07T12:36:51;2.57;;;1.23;;
71610;SDS011;59459;51.172;6.682;2023-08-07T12:39:19;4.97;;;1.10;;
71610;SDS011;59459;51.172;6.682;2023-08-07T12:41:45;4.85;;;1.90;;
71610;SDS011;59459;51.172;6.682;2023-08-07T12:44:10;5.50;;;1.20;;
71610;SDS011;59459;51.172;6.682;2023-08-07T12:46:37;3.75;;;1.23;;
71610;SDS011;59459;51.172;6.682;2023-08-07T12:49:03;3.17;;;1.10;;
71610;SDS011;59459;51.172;6.682;2023-08-07T12:51:28;2.93;;;1.30;;
71610;SDS011;59459;51.172;6.682;2023-08-07T12:53:53;4.20;;;1.30;;
71610;SDS011;59459;51.172;6.682;2023-08-07T12:56:18;4.47;;;1.27;;
71610;SDS011;59459;51.172;6.682;2023-08-07T12:58:44;8.03;;;1.53;;
71610;SDS011;59459;51.172;6.682;2023-08-07T13:01:10;3.40;;;0.90;;
71610;SDS011;59459;51.172;6.682;2023-08-07T13:03:36;4.40;;;1.20;;
71610;SDS011;59459;51.172;6.682;2023-08-07T13:06:01;3.57;;;1.10;;
71610;SDS011;59459;51.172;6.682;2023-08-07T13:08:30;4.43;;;1.60;;
71610;SDS011;59459;51.172;6.682;2023-08-07T13:10:55;4.13;;;1.20;;
71610;SDS011;59459;51.172;6.682;2023-08-07T13:13:21;2.50;;;0.90;;
71610;SDS011;59459;51.172;6.682;2023-08-07T13:15:46;4.57;;;1.00;;
71610;SDS011;59459;51.172;6.682;2023-08-07T13:18:11;3.97;;;1.40;;
71610;SDS011;59459;51.172;6.682;2023-08-07T13:20:39;3.60;;;0.95;;
71610;SDS011;59459;51.172;6.682;2023-08-07T13:23:04;3.67;;;1.27;;
71610;SDS011;59459;51.172;6.682;2023-08-07T13:25:31;3.38;;;1.08;;
71610;SDS011;59459;51.172;6.682;2023-08-07T13:27:56;3.40;;;0.97;;
71610;SDS011;59459;51.172;6.682;2023-08-07T13:30:21;3.63;;;1.43;;
71610;SDS011;59459;51.172;6.682;2023-08-07T13:32:47;3.70;;;1.10;;
71610;SDS011;59459;51.172;6.682;2023-08-07T13:35:12;5.23;;;1.60;;
71610;SDS011;59459;51.172;6.682;2023-08-07T13:37:37;3.40;;;1.10;;
71610;SDS011;59459;51.172;6.682;2023-08-07T13:40:03;4.32;;;1.67;;
71610;SDS011;59459;51.172;6.682;2023-08-07T13:42:29;3.80;;;1.23;;
71610;SDS011;59459;51.172;6.682;2023-08-07T13:44:55;6.17;;;1.60;;
71610;SDS011;59459;51.172;6.682;2023-08-07T13:47:20;5.78;;;1.83;;
71610;SDS011;59459;51.172;6.682;2023-08-07T13:49:45;5.03;;;0.97;;
71610;SDS011;59459;51.172;6.682;2023-08-07T13:52:11;2.70;;;1.03;;
71610;SDS011;59459;51.172;6.682;2023-08-07T13:54:36;4.97;;;1.43;;
71610;SDS011;59459;51.172;6.682;2023-08-07T13:57:01;5.83;;;1.77;;
71610;SDS011;59459;51.172;6.682;2023-08-07T13:59:26;5.37;;;1.40;;
71610;SDS011;59459;51.172;6.682;2023-08-07T14:01:52;4.87;;;1.40;;
71610;SDS011;59459;51.172;6.682;2023-08-07T14:04:18;4.20;;;1.37;;
71610;SDS011;59459;51.172;6.682;2023-08-07T14:06:45;2.67;;;1.30;;
71610;SDS011;59459;51.172;6.682;2023-08-07T14:09:10;4.43;;;1.60;;
71610;SDS011;59459;51.172;6.682;2023-08-07T14:11:36;4.20;;;1.77;;
71610;SDS011;59459;51.172;6.682;2023-08-07T14:14:01;4.78;;;1.20;;
71610;SDS011;59459;51.172;6.682;2023-08-07T14:16:26;3.57;;;1.50;;
71610;SDS011;59459;51.172;6.682;2023-08-07T14:18:52;3.60;;;2.00;;
71610;SDS011;59459;51.172;6.682;2023-08-07T14:21:17;6.10;;;1.60;;
71610;SDS011;59459;51.172;6.682;2023-08-07T14:23:43;4.38;;;1.50;;
71610;SDS011;59459;51.172;6.682;2023-08-07T14:26:10;3.70;;;1.80;;
71610;SDS011;59459;51.172;6.682;2023-08-07T14:28:35;6.38;;;1.63;;
71610;SDS011;59459;51.172;6.682;2023-08-07T14:31:05;4.13;;;1.70;;
71610;SDS011;59459;51.172;6.682;2023-08-07T14:33:30;5.97;;;2.00;;
71610;SDS011;59459;51.172;6.682;2023-08-07T14:35:56;4.13;;;1.37;;
71610;SDS011;59459;51.172;6.682;2023-08-07T14:38:21;8.10;;;1.70;;
71610;SDS011;59459;51.172;6.682;2023-08-07T14:40:46;5.13;;;1.50;;
71610;SDS011;59459;51.172;6.682;2023-08-07T14:43:11;3.57;;;1.30;;